Time;durP1;ratioP1;P1;durP2;ratioP2;P2;SDS_P1;SDS_P2;PMS_P1;PMS_P2;Temp;Humidity;BMP_temperature;BMP_pressure;BME280_temperature;BME280_humidity;BME280_pressure;Samples;Min_cycle;Max_cycle;Signal;HPM_P1;HPM_P2
2020/12/06 00:00:04;;;;;;;48.33;19.70;;;;;;;;;;5057082;28;20234;-77
2020/12/06 00:03:09;;;;;;;54.60;20.47;;;;;;;;;;5052516;28;20228;-77
2020/12/06 00:06:15;;;;;;;50.70;20.90;;;;;;;;;;5044883;28;20264;-78
2020/12/06 00:09:19;;;;;;;50.10;20.03;;;;;;;;;;5050822;28;20202;-77
2020/12/06 00:12:24;;;;;;;46.77;19.50;;;;;;;;;;5037450;28;20230;-78
2020/12/06 00:15:29;;;;;;;51.63;19.87;;;;;;;;;;5051040;28;20713;-78
2020/12/06 00:18:33;;;;;;;49.17;20.43;;;;;;;;;;5048638;28;20190;-77
2020/12/06 00:21:39;;;;;;;46.60;19.67;;;;;;;;;;5064371;28;20217;-77
2020/12/06 00:24:44;;;;;;;48.20;19.93;;;;;;;;;;5070747;28;20221;-77
2020/12/06 00:27:48;;;;;;;43.87;18.57;;;;;;;;;;5063868;28;20305;-76
2020/12/06 00:30:53;;;;;;;51.03;20.03;;;;;;;;;;5053163;28;20961;-77
2020/12/06 00:33:57;;;;;;;54.50;20.57;;;;;;;;;;5065220;28;20581;-77
2020/12/06 00:37:04;;;;;;;51.50;21.27;;;;;;;;;;5063775;28;20649;-78
2020/12/06 00:40:09;;;;;;;55.00;21.40;;;;;;;;;;5050708;28;20234;-77
2020/12/06 00:43:14;;;;;;;55.67;21.47;;;;;;;;;;5046372;28;20258;-78
2020/12/06 00:46:22;;;;;;;50.47;21.03;;;;;;;;;;5056454;28;20211;-77
2020/12/06 00:49:28;;;;;;;51.93;21.17;;;;;;;;;;5037958;28;20256;-78
2020/12/06 00:52:33;;;;;;;62.20;22.17;;;;;;;;;;5053826;28;20230;-77
2020/12/06 00:55:38;;;;;;;55.67;21.73;;;;;;;;;;5067677;28;20211;-77
2020/12/06 00:58:44;;;;;;;54.67;21.80;;;;;;;;;;5081199;28;20286;-77
2020/12/06 01:01:49;;;;;;;59.30;21.50;;;;;;;;;;5078301;28;20233;-78
2020/12/06 01:04:54;;;;;;;53.67;21.37;;;;;;;;;;5066134;28;20210;-77
2020/12/06 01:08:00;;;;;;;53.00;20.53;;;;;;;;;;5058436;28;20257;-78
2020/12/06 01:11:04;;;;;;;49.67;21.00;;;;;;;;;;5056798;28;20234;-78
2020/12/06 01:14:09;;;;;;;54.03;19.73;;;;;;;;;;5057009;28;20271;-77
2020/12/06 01:17:16;;;;;;;46.40;19.77;;;;;;;;;;5043482;28;20203;-77
2020/12/06 01:20:21;;;;;;;45.27;19.67;;;;;;;;;;5061712;28;20218;-77
2020/12/06 01:23:27;;;;;;;49.13;20.00;;;;;;;;;;5074853;28;20226;-78
2020/12/06 01:26:31;;;;;;;51.40;20.47;;;;;;;;;;5053890;28;20233;-78
2020/12/06 01:29:36;;;;;;;51.47;20.37;;;;;;;;;;5048796;28;20203;-78
2020/12/06 01:32:42;;;;;;;46.47;19.67;;;;;;;;;;5054196;28;20226;-78
2020/12/06 01:35:47;;;;;;;48.10;20.07;;;;;;;;;;5034631;28;20624;-78
2020/12/06 01:38:52;;;;;;;50.30;19.37;;;;;;;;;;5055658;28;20246;-78
2020/12/06 01:41:57;;;;;;;47.73;19.80;;;;;;;;;;5054426;28;20237;-77
2020/12/06 01:45:02;;;;;;;47.93;19.30;;;;;;;;;;5053058;28;20268;-78
2020/12/06 01:48:07;;;;;;;49.83;20.50;;;;;;;;;;5062403;28;20218;-78
2020/12/06 01:51:12;;;;;;;52.23;20.67;;;;;;;;;;5058492;28;20584;-77
2020/12/06 01:54:17;;;;;;;50.17;20.63;;;;;;;;;;5054529;28;20303;-78
2020/12/06 01:57:22;;;;;;;51.07;20.10;;;;;;;;;;5049708;28;20210;-77
2020/12/06 02:00:27;;;;;;;50.23;21.27;;;;;;;;;;5054389;28;20318;-76
2020/12/06 02:03:32;;;;;;;51.53;20.90;;;;;;;;;;5067485;28;20242;-77
2020/12/06 02:06:36;;;;;;;49.83;20.77;;;;;;;;;;5056269;28;20330;-77
2020/12/06 02:09:44;;;;;;;50.43;20.23;;;;;;;;;;5052886;28;20245;-76
2020/12/06 02:12:48;;;;;;;51.00;19.43;;;;;;;;;;5069435;28;20356;-78
2020/12/06 02:15:54;;;;;;;51.80;20.23;;;;;;;;;;5056446;28;20215;-77
2020/12/06 02:18:59;;;;;;;46.27;19.33;;;;;;;;;;5054783;28;20202;-77
2020/12/06 02:22:04;;;;;;;49.93;20.57;;;;;;;;;;5066489;28;20210;-77
2020/12/06 02:25:08;;;;;;;54.03;20.53;;;;;;;;;;5060506;28;20202;-78
2020/12/06 02:28:13;;;;;;;48.43;18.90;;;;;;;;;;5053430;28;20203;-77
2020/12/06 02:31:18;;;;;;;47.30;19.23;;;;;;;;;;5046016;28;20338;-78
2020/12/06 02:34:23;;;;;;;47.07;19.63;;;;;;;;;;5053860;28;20264;-77
2020/12/06 02:37:29;;;;;;;44.13;18.33;;;;;;;;;;5053499;28;20199;-77
2020/12/06 02:40:33;;;;;;;47.43;20.13;;;;;;;;;;5051491;28;20612;-77
2020/12/06 02:43:38;;;;;;;44.23;18.57;;;;;;;;;;5051037;28;20230;-77
2020/12/06 02:46:42;;;;;;;52.13;19.77;;;;;;;;;;5052562;28;20203;-77
2020/12/06 02:49:48;;;;;;;49.80;19.80;;;;;;;;;;5052060;28;20643;-78
2020/12/06 02:52:57;;;;;;;49.53;20.20;;;;;;;;;;5051608;28;20365;-78
2020/12/06 02:56:02;;;;;;;51.67;19.73;;;;;;;;;;5051223;28;20206;-78
2020/12/06 02:59:06;;;;;;;44.13;18.77;;;;;;;;;;5059111;28;20223;-77
2020/12/06 03:02:11;;;;;;;47.43;18.57;;;;;;;;;;5054535;28;20741;-77
2020/12/06 03:05:16;;;;;;;45.90;19.03;;;;;;;;;;5061501;28;20256;-77
2020/12/06 03:08:21;;;;;;;47.40;17.10;;;;;;;;;;5061535;28;20198;-77
2020/12/06 03:11:27;;;;;;;52.67;19.97;;;;;;;;;;5072108;28;20198;-77
2020/12/06 03:14:32;;;;;;;48.10;19.37;;;;;;;;;;5070670;28;20245;-77
2020/12/06 03:17:37;;;;;;;45.43;18.20;;;;;;;;;;5058066;28;20361;-77
2020/12/06 03:20:41;;;;;;;46.73;19.23;;;;;;;;;;5033895;28;20648;-77
2020/12/06 03:23:46;;;;;;;47.57;18.57;;;;;;;;;;5046303;28;20230;-78
2020/12/06 03:26:51;;;;;;;52.03;18.20;;;;;;;;;;5056539;28;20583;-77
2020/12/06 03:29:56;;;;;;;41.47;15.87;;;;;;;;;;5073583;28;20660;-78
2020/12/06 03:33:01;;;;;;;44.13;17.67;;;;;;;;;;5052381;28;20226;-77
2020/12/06 03:36:06;;;;;;;41.17;16.37;;;;;;;;;;5043176;28;20582;-77
2020/12/06 03:39:15;;;;;;;41.30;17.97;;;;;;;;;;5051424;28;20217;-78
2020/12/06 03:42:20;;;;;;;46.30;19.13;;;;;;;;;;5053355;28;20218;-77
2020/12/06 03:45:24;;;;;;;42.00;17.00;;;;;;;;;;5064175;28;20206;-77
2020/12/06 03:48:29;;;;;;;40.43;16.63;;;;;;;;;;5058910;28;20326;-77
2020/12/06 03:51:33;;;;;;;43.67;17.60;;;;;;;;;;5052825;28;20649;-77
2020/12/06 03:54:39;;;;;;;40.73;16.67;;;;;;;;;;5074952;28;20202;-77
2020/12/06 03:57:44;;;;;;;44.00;18.20;;;;;;;;;;5054661;28;20211;-78
2020/12/06 04:00:48;;;;;;;45.67;16.57;;;;;;;;;;5051959;28;20241;-76
2020/12/06 04:03:54;;;;;;;45.87;17.50;;;;;;;;;;5062474;28;20266;-76
2020/12/06 04:06:59;;;;;;;44.80;16.60;;;;;;;;;;5062293;28;20219;-77
2020/12/06 04:10:05;;;;;;;46.47;17.87;;;;;;;;;;5050803;28;20554;-77
2020/12/06 04:13:09;;;;;;;47.10;17.90;;;;;;;;;;5050753;28;20234;-78
2020/12/06 04:16:14;;;;;;;50.63;19.07;;;;;;;;;;5060703;28;20237;-77
2020/12/06 04:19:19;;;;;;;42.40;17.57;;;;;;;;;;5031451;28;20342;-77
2020/12/06 04:22:24;;;;;;;35.63;15.10;;;;;;;;;;5064053;28;20234;-78
2020/12/06 04:25:29;;;;;;;43.27;17.60;;;;;;;;;;5058209;28;20214;-77
2020/12/06 04:28:34;;;;;;;45.17;17.60;;;;;;;;;;5087420;28;20220;-78
2020/12/06 04:31:39;;;;;;;41.83;17.60;;;;;;;;;;5058192;28;20202;-77
2020/12/06 04:34:45;;;;;;;42.40;17.70;;;;;;;;;;5056281;28;20218;-78
2020/12/06 04:37:50;;;;;;;45.70;17.37;;;;;;;;;;5058756;28;20256;-77
2020/12/06 04:40:55;;;;;;;46.93;18.30;;;;;;;;;;5068010;28;20808;-77
2020/12/06 04:44:00;;;;;;;43.33;18.67;;;;;;;;;;5055891;28;20272;-77
2020/12/06 04:47:05;;;;;;;45.10;18.97;;;;;;;;;;5054073;28;20187;-77
2020/12/06 04:50:12;;;;;;;43.10;17.67;;;;;;;;;;5057190;28;20309;-77
2020/12/06 04:53:18;;;;;;;45.53;19.13;;;;;;;;;;5055894;28;20726;-77
2020/12/06 04:56:24;;;;;;;43.57;18.73;;;;;;;;;;5055527;28;20210;-77
2020/12/06 04:59:29;;;;;;;45.97;18.20;;;;;;;;;;5070477;28;20210;-77
2020/12/06 05:02:34;;;;;;;41.23;16.20;;;;;;;;;;5065420;28;20330;-77
2020/12/06 05:05:40;;;;;;;42.03;16.03;;;;;;;;;;5070247;28;20649;-78
2020/12/06 05:08:44;;;;;;;42.70;18.07;;;;;;;;;;5054702;28;20203;-77
2020/12/06 05:11:50;;;;;;;39.57;17.37;;;;;;;;;;5036504;28;20227;-77
2020/12/06 05:14:55;;;;;;;42.53;17.93;;;;;;;;;;5046946;28;20254;-77
2020/12/06 05:18:00;;;;;;;41.90;16.50;;;;;;;;;;5064339;28;20251;-77
2020/12/06 05:21:04;;;;;;;40.37;16.63;;;;;;;;;;5077100;28;20222;-77
2020/12/06 05:24:09;;;;;;;40.90;17.50;;;;;;;;;;5060259;28;20480;-77
2020/12/06 05:27:15;;;;;;;37.03;16.67;;;;;;;;;;5064889;28;20256;-77
2020/12/06 05:30:20;;;;;;;40.40;17.07;;;;;;;;;;5059006;28;20693;-77
2020/12/06 05:33:25;;;;;;;46.90;16.33;;;;;;;;;;5070502;28;20234;-77
2020/12/06 05:36:29;;;;;;;41.67;16.47;;;;;;;;;;5056801;28;20218;-76
2020/12/06 05:39:34;;;;;;;35.80;16.17;;;;;;;;;;5043235;28;20222;-78
2020/12/06 05:42:41;;;;;;;37.10;16.33;;;;;;;;;;5045526;28;20226;-77
2020/12/06 05:45:46;;;;;;;38.87;15.90;;;;;;;;;;5056348;28;20452;-77
2020/12/06 05:48:51;;;;;;;42.27;16.83;;;;;;;;;;5054185;28;20345;-78
2020/12/06 05:51:56;;;;;;;41.67;16.73;;;;;;;;;;5070841;28;20210;-78
2020/12/06 05:55:01;;;;;;;45.37;17.33;;;;;;;;;;5061553;28;20261;-77
2020/12/06 05:58:07;;;;;;;47.27;18.07;;;;;;;;;;5062012;28;20578;-77
2020/12/06 06:01:12;;;;;;;48.97;17.77;;;;;;;;;;5053885;28;21037;-77
2020/12/06 06:04:20;;;;;;;47.10;17.47;;;;;;;;;;5069522;28;20215;-78
2020/12/06 06:07:25;;;;;;;46.30;18.43;;;;;;;;;;5058535;28;20709;-77
2020/12/06 06:10:34;;;;;;;40.27;16.60;;;;;;;;;;5095337;28;20202;-78
2020/12/06 06:13:43;;;;;;;42.83;18.10;;;;;;;;;;5082679;28;20246;-77
2020/12/06 06:16:48;;;;;;;44.43;17.40;;;;;;;;;;5044096;28;20238;-77
2020/12/06 06:19:53;;;;;;;40.37;17.07;;;;;;;;;;5054594;28;20227;-78
2020/12/06 06:22:58;;;;;;;42.07;18.37;;;;;;;;;;5053608;28;20258;-78
2020/12/06 06:26:04;;;;;;;39.07;17.20;;;;;;;;;;5035332;28;20261;-77
2020/12/06 06:29:27;;;;;;;38.83;16.73;;;;;;;;;;5056826;28;20203;-77
2020/12/06 06:33:07;;;;;;;40.90;17.60;;;;;;;;;;5070106;28;20307;-77
2020/12/06 06:36:23;;;;;;;42.17;16.43;;;;;;;;;;5028238;28;20234;-77
2020/12/06 06:43:41;;;;;;;36.50;15.60;;;;;;;;;;5058133;28;20744;-78
2020/12/06 06:47:20;;;;;;;37.10;15.73;;;;;;;;;;5051475;28;20269;-77
2020/12/06 06:50:36;;;;;;;34.87;14.43;;;;;;;;;;5057475;28;20198;-78
2020/12/06 06:53:54;;;;;;;36.50;14.80;;;;;;;;;;5056904;28;20247;-78
2020/12/06 06:57:15;;;;;;;32.00;14.10;;;;;;;;;;5056157;28;20211;-78
2020/12/06 07:04:26;;;;;;;33.10;12.87;;;;;;;;;;5059266;28;20222;-78
2020/12/06 07:08:00;;;;;;;28.17;11.23;;;;;;;;;;5020459;28;20271;-78
2020/12/06 07:11:26;;;;;;;27.40;11.33;;;;;;;;;;5052080;28;20299;-78
2020/12/06 07:14:45;;;;;;;25.17;10.90;;;;;;;;;;5042589;28;20733;-78
2020/12/06 07:17:58;;;;;;;18.87;9.03;;;;;;;;;;5040523;28;20207;-78
2020/12/06 07:21:55;;;;;;;21.97;9.00;;;;;;;;;;5047346;28;20585;-77
2020/12/06 07:25:21;;;;;;;12.77;4.67;;;;;;;;;;5052749;28;20257;-78
2020/12/06 07:32:19;;;;;;;7.07;2.70;;;;;;;;;;5052225;28;20589;-77
2020/12/06 07:35:32;;;;;;;6.70;2.37;;;;;;;;;;5038582;28;20184;-77
2020/12/06 07:39:14;;;;;;;8.97;2.63;;;;;;;;;;5038442;28;20199;-78
2020/12/06 07:47:11;;;;;;;13.13;3.57;;;;;;;;;;5052889;28;20199;-78
2020/12/06 07:51:09;;;;;;;5.73;2.80;;;;;;;;;;5056848;28;20199;-79
2020/12/06 07:54:36;;;;;;;7.87;2.97;;;;;;;;;;5070693;28;20223;-78
2020/12/06 07:58:37;;;;;;;6.30;2.47;;;;;;;;;;5073733;28;20195;-77
2020/12/06 08:02:04;;;;;;;7.33;2.50;;;;;;;;;;5049489;28;20226;-78
2020/12/06 08:06:20;;;;;;;7.83;2.70;;;;;;;;;;5038345;28;20714;-77
2020/12/06 08:09:42;;;;;;;6.83;2.13;;;;;;;;;;5017543;28;20259;-78
2020/12/06 08:12:58;;;;;;;6.17;2.50;;;;;;;;;;5052050;28;20238;-78
2020/12/06 08:20:18;;;;;;;4.82;2.00;;;;;;;;;;5041173;28;20188;-77
2020/12/06 08:23:37;;;;;;;4.93;1.90;;;;;;;;;;5035560;28;20837;-78
2020/12/06 08:27:02;;;;;;;5.57;1.98;;;;;;;;;;5053020;28;20203;-78
2020/12/06 08:30:36;;;;;;;5.55;2.50;;;;;;;;;;5050026;28;20279;-78
2020/12/06 08:33:54;;;;;;;5.03;2.40;;;;;;;;;;5052827;28;20273;-79
2020/12/06 08:41:20;;;;;;;6.28;2.30;;;;;;;;;;5042942;28;20210;-78
2020/12/06 08:45:04;;;;;;;7.20;3.50;;;;;;;;;;5055948;28;20385;-78
2020/12/06 08:48:45;;;;;;;9.68;2.30;;;;;;;;;;5057250;28;20209;-79
2020/12/06 08:55:59;;;;;;;7.47;2.35;;;;;;;;;;5056392;28;20195;-77
2020/12/06 08:59:17;;;;;;;7.47;2.20;;;;;;;;;;5056439;28;20219;-78
2020/12/06 09:02:42;;;;;;;6.72;2.33;;;;;;;;;;5040845;28;20235;-77
2020/12/06 09:06:34;;;;;;;5.45;2.00;;;;;;;;;;5048953;28;20210;-78
2020/12/06 09:10:05;;;;;;;6.43;2.25;;;;;;;;;;5052918;28;20261;-78
2020/12/06 09:13:37;;;;;;;7.70;1.90;;;;;;;;;;5060287;28;20269;-78
2020/12/06 09:17:13;;;;;;;6.97;1.95;;;;;;;;;;5065180;28;20203;-76
2020/12/06 09:20:31;;;;;;;5.57;2.00;;;;;;;;;;5044827;28;20303;-78
2020/12/06 09:23:41;;;;;;;3.38;1.80;;;;;;;;;;5055744;28;20337;-78
2020/12/06 09:26:54;;;;;;;4.90;1.90;;;;;;;;;;5054006;28;20199;-78
2020/12/06 09:30:00;;;;;;;4.90;2.03;;;;;;;;;;5049948;28;20210;-79
2020/12/06 09:33:05;;;;;;;8.18;2.10;;;;;;;;;;5052044;28;20223;-79
2020/12/06 09:36:10;;;;;;;4.47;2.00;;;;;;;;;;5055747;28;20222;-78
2020/12/06 09:39:15;;;;;;;8.45;2.13;;;;;;;;;;5058393;28;20241;-82
2020/12/06 09:42:21;;;;;;;4.63;1.95;;;;;;;;;;5058581;28;20203;-78
2020/12/06 09:45:25;;;;;;;4.80;2.00;;;;;;;;;;5052168;28;20283;-77
2020/12/06 09:48:30;;;;;;;3.60;1.80;;;;;;;;;;5057043;28;20211;-77
2020/12/06 09:51:36;;;;;;;3.75;1.90;;;;;;;;;;5057077;28;20322;-79
2020/12/06 09:54:40;;;;;;;8.55;3.70;;;;;;;;;;5052298;28;20346;-78
2020/12/06 09:57:46;;;;;;;7.38;2.75;;;;;;;;;;5056040;28;20214;-78
2020/12/06 10:00:51;;;;;;;5.43;2.10;;;;;;;;;;5054905;28;20279;-77
2020/12/06 10:03:56;;;;;;;5.05;1.85;;;;;;;;;;5056564;28;20258;-78
2020/12/06 10:07:01;;;;;;;6.45;2.00;;;;;;;;;;5060309;28;20211;-79
2020/12/06 10:10:06;;;;;;;8.10;2.25;;;;;;;;;;5055354;28;20230;-77
2020/12/06 10:13:11;;;;;;;9.38;2.58;;;;;;;;;;5056544;28;20284;-77
2020/12/06 10:16:17;;;;;;;10.68;2.45;;;;;;;;;;5054955;28;20714;-77
2020/12/06 10:19:23;;;;;;;7.70;2.08;;;;;;;;;;5054638;28;20704;-78
2020/12/06 10:22:28;;;;;;;9.23;1.90;;;;;;;;;;5041232;28;20567;-78
2020/12/06 10:25:33;;;;;;;3.17;1.75;;;;;;;;;;5058849;28;20210;-79
2020/12/06 10:28:38;;;;;;;3.50;1.92;;;;;;;;;;5057160;28;20207;-79
2020/12/06 10:31:43;;;;;;;4.90;1.92;;;;;;;;;;5053436;28;20229;-79
2020/12/06 10:34:48;;;;;;;5.32;1.90;;;;;;;;;;5058194;28;20211;-81
2020/12/06 10:37:53;;;;;;;6.68;1.90;;;;;;;;;;5052291;28;20736;-78
2020/12/06 10:40:58;;;;;;;6.50;2.58;;;;;;;;;;5056186;28;20249;-79
2020/12/06 10:44:03;;;;;;;8.25;2.38;;;;;;;;;;5054494;28;20233;-79
2020/12/06 10:47:08;;;;;;;8.82;2.13;;;;;;;;;;5057584;28;20318;-79
2020/12/06 10:50:15;;;;;;;4.97;2.05;;;;;;;;;;5053898;28;20219;-80
2020/12/06 10:53:20;;;;;;;9.80;2.10;;;;;;;;;;5062411;28;20234;-79
2020/12/06 10:56:26;;;;;;;7.80;2.30;;;;;;;;;;5056909;28;20235;-79
2020/12/06 10:59:31;;;;;;;7.00;2.20;;;;;;;;;;5063608;28;20217;-80
2020/12/06 11:02:35;;;;;;;3.63;1.83;;;;;;;;;;5057291;28;20264;-78
2020/12/06 11:05:40;;;;;;;4.82;1.90;;;;;;;;;;5056517;28;20206;-77
2020/12/06 11:08:46;;;;;;;6.22;2.70;;;;;;;;;;5052118;28;20242;-77
2020/12/06 11:11:50;;;;;;;5.30;2.28;;;;;;;;;;5057380;28;20222;-78
2020/12/06 11:14:55;;;;;;;8.07;2.13;;;;;;;;;;5057981;28;20245;-77
2020/12/06 11:18:00;;;;;;;8.45;2.45;;;;;;;;;;5067312;28;20235;-78
2020/12/06 11:21:05;;;;;;;5.07;2.50;;;;;;;;;;5064923;28;20257;-78
2020/12/06 11:24:10;;;;;;;5.45;2.10;;;;;;;;;;5046576;28;20320;-77
2020/12/06 11:27:15;;;;;;;8.55;2.25;;;;;;;;;;5054434;28;20215;-79
2020/12/06 11:30:20;;;;;;;4.68;2.10;;;;;;;;;;5050636;28;20253;-77
2020/12/06 11:33:24;;;;;;;3.85;2.10;;;;;;;;;;5054981;28;20218;-78
2020/12/06 11:36:29;;;;;;;4.95;2.17;;;;;;;;;;5052700;28;20725;-81
2020/12/06 11:39:34;;;;;;;7.57;2.35;;;;;;;;;;5054129;28;20342;-77
2020/12/06 11:42:39;;;;;;;8.07;2.30;;;;;;;;;;5060490;28;20744;-78
2020/12/06 11:45:44;;;;;;;4.03;2.38;;;;;;;;;;5066031;28;20585;-78
2020/12/06 11:48:49;;;;;;;7.93;2.55;;;;;;;;;;5057712;28;20209;-79
2020/12/06 11:51:55;;;;;;;11.90;4.97;;;;;;;;;;5054524;28;20219;-78
2020/12/06 11:55:01;;;;;;;5.88;2.40;;;;;;;;;;5050626;28;20298;-78
2020/12/06 11:58:05;;;;;;;6.40;3.22;;;;;;;;;;5052445;28;20307;-78
2020/12/06 12:01:10;;;;;;;8.07;2.60;;;;;;;;;;5053872;28;20226;-78
2020/12/06 12:04:14;;;;;;;4.72;2.40;;;;;;;;;;5059569;28;20226;-78
2020/12/06 12:07:19;;;;;;;8.23;2.33;;;;;;;;;;5034158;28;20211;-79
2020/12/06 12:10:25;;;;;;;4.68;2.42;;;;;;;;;;5063460;28;20227;-80
2020/12/06 12:13:29;;;;;;;4.70;2.22;;;;;;;;;;5064309;28;20606;-79
2020/12/06 12:16:35;;;;;;;6.53;2.67;;;;;;;;;;5067648;28;20221;-79
2020/12/06 12:19:40;;;;;;;7.40;2.42;;;;;;;;;;5062272;28;20211;-79
2020/12/06 12:22:45;;;;;;;6.45;2.65;;;;;;;;;;5058267;28;20308;-80
2020/12/06 12:25:51;;;;;;;7.00;3.13;;;;;;;;;;5057381;28;20206;-79
2020/12/06 12:28:57;;;;;;;4.90;2.40;;;;;;;;;;5048833;28;20186;-79
2020/12/06 12:32:01;;;;;;;4.00;2.30;;;;;;;;;;5048272;28;20234;-78
2020/12/06 12:35:06;;;;;;;8.60;2.80;;;;;;;;;;5053251;28;20663;-78
2020/12/06 12:38:14;;;;;;;6.72;2.42;;;;;;;;;;5054084;28;20202;-78
2020/12/06 12:41:20;;;;;;;6.68;2.80;;;;;;;;;;5054682;28;20230;-78
2020/12/06 12:44:25;;;;;;;7.10;2.30;;;;;;;;;;5057470;28;20288;-79
2020/12/06 12:47:30;;;;;;;8.52;2.80;;;;;;;;;;5063251;28;20201;-80
2020/12/06 12:50:35;;;;;;;5.45;2.50;;;;;;;;;;5068166;28;20298;-79
2020/12/06 12:53:40;;;;;;;4.82;2.35;;;;;;;;;;5068925;28;20230;-80
2020/12/06 12:56:46;;;;;;;7.25;2.55;;;;;;;;;;5067986;28;20542;-80
2020/12/06 12:59:51;;;;;;;4.57;2.60;;;;;;;;;;5072577;28;20262;-80
2020/12/06 13:02:56;;;;;;;6.57;2.35;;;;;;;;;;5071031;28;20305;-79
2020/12/06 13:06:01;;;;;;;4.47;2.35;;;;;;;;;;5062520;28;20295;-80
2020/12/06 13:09:05;;;;;;;7.45;2.20;;;;;;;;;;5071661;28;20202;-79
2020/12/06 13:12:11;;;;;;;4.13;2.05;;;;;;;;;;5063342;28;20195;-79
2020/12/06 13:15:16;;;;;;;5.05;2.20;;;;;;;;;;5073373;28;20218;-78
2020/12/06 13:18:21;;;;;;;5.03;2.55;;;;;;;;;;5058822;28;20210;-78
2020/12/06 13:21:27;;;;;;;6.35;2.63;;;;;;;;;;5061391;28;20227;-79
2020/12/06 13:24:31;;;;;;;5.80;2.92;;;;;;;;;;5063181;28;20257;-78
2020/12/06 13:27:37;;;;;;;5.18;2.75;;;;;;;;;;5071420;28;20203;-79
2020/12/06 13:30:41;;;;;;;12.93;2.17;;;;;;;;;;5067434;28;20242;-80
2020/12/06 13:33:48;;;;;;;6.63;2.58;;;;;;;;;;5065146;28;20226;-79
2020/12/06 13:36:53;;;;;;;4.93;2.30;;;;;;;;;;5063479;28;20195;-79
2020/12/06 13:39:59;;;;;;;5.78;2.50;;;;;;;;;;5065478;28;20206;-78
2020/12/06 13:43:04;;;;;;;4.95;2.45;;;;;;;;;;5069848;28;20784;-79
2020/12/06 13:46:09;;;;;;;7.18;2.42;;;;;;;;;;5054156;28;20698;-80
2020/12/06 13:49:14;;;;;;;7.70;2.33;;;;;;;;;;5055427;28;20294;-79
2020/12/06 13:52:19;;;;;;;6.78;2.40;;;;;;;;;;5061040;28;20207;-79
2020/12/06 13:55:24;;;;;;;6.32;2.80;;;;;;;;;;5066516;28;20313;-79
2020/12/06 13:58:30;;;;;;;5.10;2.50;;;;;;;;;;5066705;28;20202;-80
2020/12/06 14:01:35;;;;;;;7.93;3.17;;;;;;;;;;5082639;28;20210;-79
2020/12/06 14:04:39;;;;;;;7.15;2.67;;;;;;;;;;5079758;28;20313;-79
2020/12/06 14:07:46;;;;;;;6.10;2.65;;;;;;;;;;5073413;28;20574;-78
2020/12/06 14:10:54;;;;;;;8.43;2.50;;;;;;;;;;5041471;28;20196;-79
2020/12/06 14:13:59;;;;;;;5.15;2.58;;;;;;;;;;5057529;28;20737;-81
2020/12/06 14:17:04;;;;;;;6.18;2.55;;;;;;;;;;5066533;28;20209;-78
2020/12/06 14:20:10;;;;;;;7.10;2.47;;;;;;;;;;5064585;28;20344;-78
2020/12/06 14:23:15;;;;;;;5.40;2.90;;;;;;;;;;5066876;28;20210;-81
2020/12/06 14:26:20;;;;;;;5.43;2.88;;;;;;;;;;5070278;28;20199;-79
2020/12/06 14:29:26;;;;;;;5.57;3.00;;;;;;;;;;5062563;28;20234;-81
2020/12/06 14:32:31;;;;;;;7.80;3.33;;;;;;;;;;5075351;28;20229;-79
2020/12/06 14:35:36;;;;;;;6.63;2.95;;;;;;;;;;5074090;28;20199;-79
2020/12/06 14:39:20;;;;;;;8.10;3.20;;;;;;;;;;5074437;28;20221;-79
2020/12/06 14:42:25;;;;;;;9.35;3.20;;;;;;;;;;5049671;28;20215;-80
2020/12/06 14:45:32;;;;;;;7.82;3.42;;;;;;;;;;5055892;28;20195;-79
2020/12/06 14:48:37;;;;;;;6.93;3.30;;;;;;;;;;5067676;28;20276;-79
2020/12/06 14:51:46;;;;;;;9.05;3.72;;;;;;;;;;5066274;28;20203;-80
2020/12/06 14:54:51;;;;;;;7.10;3.45;;;;;;;;;;5062486;28;20238;-79
2020/12/06 14:57:56;;;;;;;6.00;3.05;;;;;;;;;;5059479;28;20218;-78
2020/12/06 15:01:02;;;;;;;10.68;3.92;;;;;;;;;;5066730;28;20253;-79
2020/12/06 15:04:07;;;;;;;6.63;3.20;;;;;;;;;;5066473;28;20350;-79
2020/12/06 15:07:12;;;;;;;10.68;3.92;;;;;;;;;;5065966;28;20211;-78
2020/12/06 15:10:17;;;;;;;9.90;4.50;;;;;;;;;;5064028;28;20191;-79
2020/12/06 15:13:22;;;;;;;4.30;2.42;;;;;;;;;;5058926;28;20234;-79
2020/12/06 15:16:28;;;;;;;6.43;3.50;;;;;;;;;;5068285;28;20222;-80
2020/12/06 15:19:33;;;;;;;11.73;5.53;;;;;;;;;;5044723;28;20311;-79
2020/12/06 15:22:37;;;;;;;8.68;3.85;;;;;;;;;;5061664;28;20721;-79
2020/12/06 15:25:42;;;;;;;26.45;11.15;;;;;;;;;;5061867;28;20207;-78
2020/12/06 15:28:47;;;;;;;30.85;12.73;;;;;;;;;;5059324;28;20198;-78
2020/12/06 15:31:54;;;;;;;34.77;14.93;;;;;;;;;;5059593;28;20675;-78
2020/12/06 15:34:58;;;;;;;36.97;15.70;;;;;;;;;;5056983;28;20206;-78
2020/12/06 15:38:07;;;;;;;32.87;15.00;;;;;;;;;;5064343;28;20199;-79
2020/12/06 15:41:12;;;;;;;34.63;15.60;;;;;;;;;;5054377;28;20245;-79
2020/12/06 15:44:18;;;;;;;39.57;17.50;;;;;;;;;;5060887;28;20238;-82
2020/12/06 15:47:24;;;;;;;38.03;16.43;;;;;;;;;;5067638;28;20183;-82
2020/12/06 15:50:31;;;;;;;39.60;17.90;;;;;;;;;;5061589;28;20187;-80
2020/12/06 15:53:37;;;;;;;42.53;17.97;;;;;;;;;;5067784;28;20202;-79
2020/12/06 15:56:43;;;;;;;41.30;18.07;;;;;;;;;;5062321;28;20262;-80
2020/12/06 15:59:48;;;;;;;48.57;20.17;;;;;;;;;;5062047;28;20203;-79
2020/12/06 16:02:56;;;;;;;48.90;20.07;;;;;;;;;;5042890;28;20234;-78
2020/12/06 16:06:00;;;;;;;48.27;20.20;;;;;;;;;;5062733;28;20186;-81
2020/12/06 16:09:05;;;;;;;44.53;19.50;;;;;;;;;;5062492;28;20195;-80
2020/12/06 16:12:10;;;;;;;52.10;20.37;;;;;;;;;;5061703;28;20230;-81
2020/12/06 16:15:15;;;;;;;47.77;20.40;;;;;;;;;;5065714;28;20341;-80
2020/12/06 16:18:21;;;;;;;47.40;20.10;;;;;;;;;;5039581;28;20242;-80
2020/12/06 16:21:27;;;;;;;52.97;21.93;;;;;;;;;;5051589;28;20330;-80
2020/12/06 16:24:31;;;;;;;46.47;19.53;;;;;;;;;;5051309;28;20208;-79
2020/12/06 16:27:36;;;;;;;48.07;20.60;;;;;;;;;;5061051;28;20252;-81
2020/12/06 16:30:42;;;;;;;50.33;20.00;;;;;;;;;;5057152;28;20195;-80
2020/12/06 16:33:47;;;;;;;49.03;20.63;;;;;;;;;;5058524;28;20230;-80
2020/12/06 16:36:56;;;;;;;59.77;25.20;;;;;;;;;;5055363;28;20928;-79
2020/12/06 16:40:01;;;;;;;47.87;20.93;;;;;;;;;;5056538;28;20203;-78
2020/12/06 16:43:06;;;;;;;57.17;21.70;;;;;;;;;;5052578;28;20234;-79
2020/12/06 16:46:13;;;;;;;54.50;21.73;;;;;;;;;;5044175;28;20265;-80
2020/12/06 16:49:30;;;;;;;53.93;21.10;;;;;;;;;;5071090;28;20214;-80
2020/12/06 16:52:35;;;;;;;56.27;21.70;;;;;;;;;;5071866;28;20214;-81
2020/12/06 16:55:40;;;;;;;54.87;20.87;;;;;;;;;;5051949;28;20229;-79
2020/12/06 16:58:45;;;;;;;57.47;21.57;;;;;;;;;;5048110;28;20227;-78
2020/12/06 17:01:50;;;;;;;59.57;23.13;;;;;;;;;;5053376;28;20219;-79
2020/12/06 17:04:55;;;;;;;60.13;22.20;;;;;;;;;;5048958;28;20682;-80
2020/12/06 17:08:00;;;;;;;59.50;20.83;;;;;;;;;;5055173;28;20195;-79
2020/12/06 17:11:05;;;;;;;55.13;21.80;;;;;;;;;;5039229;28;20253;-80
2020/12/06 17:14:09;;;;;;;60.50;21.93;;;;;;;;;;5055502;28;20497;-78
2020/12/06 17:17:14;;;;;;;61.50;22.17;;;;;;;;;;5036186;28;20343;-79
2020/12/06 17:20:20;;;;;;;58.10;21.43;;;;;;;;;;5049054;28;20202;-79
2020/12/06 17:23:25;;;;;;;61.53;22.53;;;;;;;;;;5065347;28;20465;-79
2020/12/06 17:26:30;;;;;;;64.37;22.17;;;;;;;;;;5062929;28;20261;-81
2020/12/06 17:29:35;;;;;;;62.53;21.67;;;;;;;;;;5059178;28;20269;-79
2020/12/06 17:32:40;;;;;;;61.03;22.43;;;;;;;;;;5062636;28;20222;-80
2020/12/06 17:35:46;;;;;;;57.57;21.27;;;;;;;;;;5064405;28;20725;-80
2020/12/06 17:38:51;;;;;;;64.47;22.30;;;;;;;;;;5061285;28;20195;-81
2020/12/06 17:41:56;;;;;;;62.70;22.37;;;;;;;;;;5077768;28;20241;-84
2020/12/06 17:45:08;;;;;;;67.40;23.30;;;;;;;;;;5077866;28;20171;-77
2020/12/06 17:48:13;;;;;;;65.07;22.50;;;;;;;;;;5071298;28;20210;-79
2020/12/06 17:51:19;;;;;;;66.07;23.00;;;;;;;;;;5042687;28;20726;-78
2020/12/06 17:54:24;;;;;;;76.17;23.13;;;;;;;;;;5046816;28;20231;-79
2020/12/06 17:57:29;;;;;;;71.80;24.33;;;;;;;;;;5072846;28;20278;-79
2020/12/06 18:00:33;;;;;;;70.73;23.10;;;;;;;;;;5063398;28;20206;-78
2020/12/06 18:03:39;;;;;;;68.87;24.03;;;;;;;;;;5063919;28;20231;-79
2020/12/06 18:06:44;;;;;;;67.50;23.87;;;;;;;;;;5066066;28;20218;-81
2020/12/06 18:09:49;;;;;;;70.07;24.60;;;;;;;;;;5064347;28;20297;-81
2020/12/06 18:12:54;;;;;;;83.90;26.63;;;;;;;;;;5063152;28;20300;-80
2020/12/06 18:15:59;;;;;;;80.23;28.60;;;;;;;;;;5064059;28;20298;-80
2020/12/06 18:19:04;;;;;;;71.93;25.63;;;;;;;;;;5060835;28;20301;-81
2020/12/06 18:22:11;;;;;;;85.43;25.67;;;;;;;;;;5067743;28;20230;-81
2020/12/06 18:25:16;;;;;;;70.20;24.10;;;;;;;;;;5054981;28;20207;-81
2020/12/06 18:28:20;;;;;;;70.57;24.53;;;;;;;;;;5056114;28;20190;-79
2020/12/06 18:31:26;;;;;;;72.57;25.03;;;;;;;;;;5061177;28;20211;-79
2020/12/06 18:34:31;;;;;;;78.53;25.40;;;;;;;;;;5046840;28;20242;-78
2020/12/06 18:37:37;;;;;;;69.23;23.40;;;;;;;;;;5050541;28;20272;-79
2020/12/06 18:40:42;;;;;;;72.13;28.07;;;;;;;;;;5063380;28;20202;-80
2020/12/06 18:43:47;;;;;;;74.70;26.63;;;;;;;;;;5080202;28;20226;-79
2020/12/06 18:46:51;;;;;;;71.80;25.00;;;;;;;;;;5077389;28;20654;-78
2020/12/06 18:49:56;;;;;;;71.30;24.83;;;;;;;;;;5062148;28;20246;-79
2020/12/06 18:53:02;;;;;;;70.07;24.60;;;;;;;;;;5057124;28;20605;-77
2020/12/06 18:56:07;;;;;;;74.87;24.80;;;;;;;;;;5058681;28;20267;-78